createdAt,value
2023-04-17T00:02:45.097Z,30.30
2023-04-17T00:06:47.964Z,44.25
2023-04-17T00:11:00.655Z,65.60
2023-04-17T00:15:10.747Z,47.83
2023-04-17T00:19:13.635Z,29.70
2023-04-17T00:23:16.563Z,34.03
2023-04-17T00:27:20.754Z,33.78
2023-04-17T00:31:25.017Z,27.95
2023-04-17T00:35:27.708Z,33.35
2023-04-17T00:39:30.894Z,32.33
2023-04-17T00:43:34.940Z,36.78
2023-04-17T00:47:37.827Z,30.60
2023-04-17T00:51:40.805Z,43.97
2023-04-17T00:55:44.421Z,34.78
2023-04-17T00:59:49.078Z,31.35
2023-04-17T01:03:52.225Z,34.17
2023-04-17T01:07:55.333Z,37.58
2023-04-17T01:12:19.736Z,38.42
2023-04-17T01:16:24.036Z,37.92
2023-04-17T01:20:31.118Z,30.25
2023-04-17T01:24:35.522Z,33.10
2023-04-17T01:28:38.404Z,34.60
2023-04-17T01:32:41.553Z,29.60
2023-04-17T01:36:44.273Z,35.55
2023-04-17T01:40:49.009Z,28.58
2023-04-17T01:44:51.929Z,30.75
2023-04-17T01:48:55.205Z,30.63
2023-04-17T01:52:58.020Z,45.17
2023-04-17T01:57:02.837Z,77.05
2023-04-17T02:01:06.238Z,35.33
2023-04-17T02:05:09.305Z,70.03
2023-04-17T02:09:12.307Z,66.53
2023-04-17T02:13:16.991Z,47.70
2023-04-17T02:17:19.844Z,47.80
2023-04-17T02:21:22.809Z,63.53
2023-04-17T02:25:25.552Z,71.57
2023-04-17T02:29:29.816Z,100.07
2023-04-17T02:33:32.614Z,68.20
2023-04-17T02:37:35.458Z,58.95
2023-04-17T02:41:38.180Z,61.33
2023-04-17T02:45:42.589Z,46.03
2023-04-17T02:49:45.265Z,42.78
2023-04-17T02:53:49.158Z,98.10
2023-04-17T03:01:59.856Z,47.00
2023-04-17T03:06:02.964Z,37.53
2023-04-17T03:10:06.430Z,64.75
2023-04-17T03:14:09.085Z,38.38
2023-04-17T03:18:13.653Z,32.85
2023-04-17T03:22:16.514Z,35.10
2023-04-17T03:26:19.519Z,31.52
2023-04-17T03:30:22.649Z,29.92
2023-04-17T03:34:28.389Z,31.48
2023-04-17T03:38:31.497Z,30.30
2023-04-17T03:42:34.163Z,99.68
2023-04-17T03:46:37.072Z,72.32
2023-04-17T03:50:41.312Z,77.10
2023-04-17T03:54:44.009Z,37.75
2023-04-17T03:58:47.597Z,69.68
2023-04-17T04:02:50.770Z,75.65
2023-04-17T04:06:57.987Z,61.60
2023-04-17T04:11:01.415Z,43.33
2023-04-17T04:15:04.497Z,65.47
2023-04-17T04:19:07.140Z,43.83
2023-04-17T04:23:11.270Z,39.03
2023-04-17T04:27:18.142Z,47.90
2023-04-17T04:31:21.093Z,91.22
2023-04-17T04:35:25.953Z,46.60
2023-04-17T04:39:30.380Z,66.60
2023-04-17T04:43:34.027Z,44.05
2023-04-17T04:47:37.314Z,92.47
2023-04-17T04:51:40.662Z,77.38
2023-04-17T04:55:44.923Z,79.35
2023-04-17T04:59:47.612Z,47.42
2023-04-17T05:03:50.487Z,45.50
2023-04-17T05:07:53.562Z,33.55
2023-04-17T05:11:57.970Z,39.78
2023-04-17T05:16:01.651Z,39.35
2023-04-17T05:20:06.941Z,55.00
2023-04-17T05:24:09.843Z,59.17
2023-04-17T05:28:16.291Z,53.35
2023-04-17T05:32:19.953Z,44.67
2023-04-17T05:36:23.064Z,71.10
2023-04-17T05:40:25.921Z,105.30
2023-04-17T05:44:29.998Z,95.72
2023-04-17T05:48:32.752Z,67.10
2023-04-17T05:52:36.972Z,107.82
2023-04-17T05:56:41.765Z,113.65
2023-04-17T06:00:46.317Z,98.88
2023-04-17T06:04:49.370Z,79.97
2023-04-17T06:08:54.398Z,67.28
2023-04-17T06:12:57.062Z,69.70
2023-04-17T06:17:01.585Z,57.88
2023-04-17T06:21:04.692Z,60.35
2023-04-17T06:25:08.568Z,52.92
2023-04-17T06:29:12.749Z,65.88
2023-04-17T06:33:17.045Z,38.50
2023-04-17T06:37:19.754Z,37.50
2023-04-17T06:41:22.483Z,37.88
2023-04-17T06:45:25.156Z,35.20
2023-04-17T06:49:29.369Z,32.42
2023-04-17T06:53:32.007Z,29.00
2023-04-17T06:57:34.640Z,33.38
2023-04-17T07:01:38.264Z,23.33
2023-04-17T07:09:45.312Z,25.08
2023-04-17T07:13:48.039Z,33.13
2023-04-17T07:17:50.714Z,33.95
2023-04-17T07:21:54.733Z,30.27
2023-04-17T07:25:57.432Z,31.00
2023-04-17T07:30:00.087Z,24.88
2023-04-17T07:34:02.840Z,25.85
2023-04-17T07:38:06.912Z,24.40
2023-04-17T07:42:11.322Z,25.15
2023-04-17T07:46:14.072Z,28.02
2023-04-17T07:50:16.754Z,23.08
2023-04-17T07:54:20.775Z,22.88
2023-04-17T07:58:24.186Z,22.33
2023-04-17T08:02:27.043Z,16.40
2023-04-17T08:06:29.706Z,17.45
2023-04-17T08:10:34.060Z,15.55
2023-04-17T08:14:36.713Z,16.38
2023-04-17T08:18:39.702Z,14.82
2023-04-17T08:22:42.727Z,14.05
2023-04-17T08:26:47.204Z,13.48
2023-04-17T08:30:49.927Z,15.32
2023-04-17T08:34:52.620Z,14.68
2023-04-17T08:38:55.352Z,17.08
2023-04-17T08:43:00.860Z,16.45
2023-04-17T08:47:04.694Z,17.73
2023-04-17T08:51:07.954Z,15.38
2023-04-17T08:55:11.242Z,15.98
2023-04-17T08:59:15.358Z,16.50
2023-04-17T09:03:18.192Z,16.20
2023-04-17T09:07:29.635Z,15.13
2023-04-17T09:11:32.339Z,16.83
2023-04-17T09:15:37.649Z,15.23
2023-04-17T09:20:06.481Z,15.15
2023-04-17T09:24:10.070Z,15.27
2023-04-17T09:28:14.692Z,12.77
2023-04-17T09:32:19.039Z,13.05
2023-04-17T09:36:22.613Z,14.65
2023-04-17T09:40:26.094Z,13.77
2023-04-17T09:48:34.461Z,12.95
2023-04-17T09:52:37.669Z,15.65
2023-04-17T09:56:41.181Z,14.55
2023-04-17T10:04:48.644Z,16.35
2023-04-17T10:08:51.732Z,14.30
2023-04-17T10:12:57.142Z,15.63
2023-04-17T10:16:59.961Z,14.35
2023-04-17T10:21:22.949Z,17.50
2023-04-17T10:25:26.977Z,15.43
2023-04-17T10:29:53.431Z,18.88
2023-04-17T10:33:56.117Z,14.98
2023-04-17T10:38:07.954Z,16.40
2023-04-17T10:42:19.374Z,17.40
2023-04-17T10:46:27.063Z,18.08
2023-04-17T10:50:30.014Z,15.23
2023-04-17T10:54:35.208Z,20.70
2023-04-17T10:58:57.687Z,14.73
2023-04-17T11:03:01.753Z,13.73
2023-04-17T11:07:04.704Z,14.52
2023-04-17T11:11:12.206Z,12.52
2023-04-17T11:15:15.047Z,13.30
2023-04-17T11:19:20.121Z,11.70
2023-04-17T11:23:22.749Z,12.25
2023-04-17T11:27:26.764Z,11.95
2023-04-17T11:31:30.199Z,11.07
2023-04-17T11:35:34.112Z,11.25
2023-04-17T11:39:36.854Z,9.95
2023-04-17T11:43:40.861Z,10.77
2023-04-17T11:47:43.614Z,12.05
2023-04-17T11:51:46.806Z,9.57
2023-04-17T11:55:49.976Z,10.73
2023-04-17T11:59:54.012Z,10.63
2023-04-17T12:03:57.560Z,10.15
2023-04-17T12:08:02.436Z,13.18
2023-04-17T12:12:06.825Z,6.03
2023-04-17T12:16:10.917Z,6.03
2023-04-17T12:20:14.208Z,7.20
2023-04-17T12:28:22.091Z,6.47
2023-04-17T12:32:26.133Z,6.43
2023-04-17T12:36:28.917Z,7.15
2023-04-17T12:40:32.840Z,7.35
2023-04-17T12:44:35.616Z,8.63
2023-04-17T12:48:39.949Z,6.30
2023-04-17T12:52:42.926Z,7.20
2023-04-17T12:56:45.553Z,6.90
2023-04-17T13:00:48.203Z,7.43
2023-04-17T13:04:53.587Z,7.28
2023-04-17T13:08:56.479Z,9.80
2023-04-17T13:12:59.401Z,8.30
2023-04-17T13:17:02.523Z,7.95
2023-04-17T13:21:07.898Z,9.80
2023-04-17T13:25:11.276Z,10.60
2023-04-17T13:33:20.537Z,8.30
2023-04-17T13:37:25.772Z,7.07
2023-04-17T13:41:28.533Z,6.55
2023-04-17T13:45:31.354Z,7.22
2023-04-17T13:49:34.110Z,6.72
2023-04-17T13:53:38.190Z,5.65
2023-04-17T13:57:40.851Z,6.47
2023-04-17T14:01:43.523Z,9.73
2023-04-17T14:05:46.532Z,5.90
2023-04-17T14:09:50.559Z,6.90
2023-04-17T14:13:53.567Z,9.18
2023-04-17T14:17:56.372Z,6.60
2023-04-17T14:21:59.045Z,6.63
2023-04-17T14:26:03.209Z,7.05
2023-04-17T14:30:07.029Z,7.30
2023-04-17T14:34:09.776Z,9.00
2023-04-17T14:38:12.447Z,8.68
2023-04-17T14:42:16.449Z,9.13
2023-04-17T14:46:19.299Z,11.15
2023-04-17T14:50:22.151Z,10.65
2023-04-17T14:54:24.839Z,11.48
2023-04-17T14:58:29.448Z,9.90
2023-04-17T15:02:38.087Z,9.23
2023-04-17T15:06:40.986Z,9.73
2023-04-17T15:10:50.786Z,10.13
2023-04-17T15:14:56.421Z,10.43
2023-04-17T15:18:59.103Z,9.32
2023-04-17T15:23:01.821Z,9.07
2023-04-17T15:27:04.667Z,9.35
2023-04-17T15:31:08.873Z,9.35
2023-04-17T15:35:11.749Z,9.60
2023-04-17T15:39:14.680Z,9.70
2023-04-17T15:43:17.577Z,7.97
2023-04-17T15:47:21.590Z,8.35
2023-04-17T15:51:24.649Z,11.10
2023-04-17T15:55:27.332Z,10.27
2023-04-17T15:59:30.032Z,7.57
2023-04-17T16:03:34.284Z,5.80
2023-04-17T16:07:37.115Z,6.53
2023-04-17T16:11:39.766Z,6.30
2023-04-17T16:15:42.582Z,7.05
2023-04-17T16:19:48.362Z,6.78
2023-04-17T16:23:52.948Z,12.52
2023-04-17T16:27:55.748Z,12.05
2023-04-17T16:31:59.735Z,6.72
2023-04-17T16:36:04.022Z,4.60
2023-04-17T16:40:07.997Z,6.90
2023-04-17T16:44:11.579Z,6.93
2023-04-17T16:48:14.572Z,5.00
2023-04-17T16:52:18.651Z,4.00
2023-04-17T16:56:21.342Z,7.82
2023-04-17T17:00:24.288Z,5.97
2023-04-17T17:04:27.298Z,4.50
2023-04-17T17:08:31.647Z,5.85
2023-04-17T17:12:34.679Z,5.57
2023-04-17T17:16:37.467Z,5.30
2023-04-17T17:20:40.241Z,5.35
2023-04-17T17:24:45.162Z,7.03
2023-04-17T17:30:26.927Z,8.00
2023-04-17T17:34:30.568Z,4.80
2023-04-17T17:38:33.416Z,7.05
2023-04-17T17:42:36.446Z,6.30
2023-04-17T17:46:41.535Z,6.65
2023-04-17T17:50:44.879Z,6.40
2023-04-17T17:54:47.958Z,4.35
2023-04-17T17:58:51.205Z,4.38
2023-04-17T18:02:56.350Z,6.10
2023-04-17T18:06:59.398Z,5.20
2023-04-17T18:11:02.635Z,5.25
2023-04-17T18:15:06.347Z,5.20
2023-04-17T18:23:13.806Z,5.90
2023-04-17T18:27:16.966Z,6.85
2023-04-17T18:31:21.892Z,5.57
2023-04-17T18:35:26.230Z,5.28
2023-04-17T18:39:29.293Z,4.53
2023-04-17T18:43:32.611Z,6.15
2023-04-17T18:47:35.551Z,5.18
2023-04-17T18:51:39.942Z,4.65
2023-04-17T18:55:42.912Z,5.53
2023-04-17T18:59:46.703Z,7.07
2023-04-17T19:03:51.446Z,5.25
2023-04-17T19:07:56.376Z,5.00
2023-04-17T19:11:59.500Z,4.90
2023-04-17T19:16:02.671Z,4.47
2023-04-17T19:20:06.826Z,6.22
2023-04-17T19:24:11.324Z,6.03
2023-04-17T19:28:14.534Z,5.00
2023-04-17T19:32:17.945Z,5.32
2023-04-17T19:36:21.078Z,3.58
2023-04-17T19:40:26.254Z,4.95
2023-04-17T19:44:29.815Z,5.70
2023-04-17T19:48:33.013Z,6.85
2023-04-17T19:52:36.130Z,4.82
2023-04-17T21:59:29.663Z,7.00
2023-04-17T22:12:21.006Z,7.35
2023-04-17T22:29:21.806Z,9.18
2023-04-17T22:33:32.122Z,6.85
2023-04-17T22:37:34.763Z,6.60
2023-04-17T22:41:41.161Z,7.45
2023-04-17T22:45:44.587Z,7.68
2023-04-17T23:37:38.400Z,9.02
2023-04-17T23:41:42.839Z,8.85
2023-04-17T23:45:45.542Z,8.32
2023-04-17T23:55:44.496Z,7.80
